Albany, NY

10:11 AM EDT on May 29, 2015 (GMT -0400)
Whitehall | Change Station
CLOSE
Current Station
Personal Weather Station
Location: Albany, NY
Elevation: 226 ft
Nearby Weather Stations

Elev 226 ft 42.65 °N, 73.80 °W | Updated 3 seconds ago

Clear
Clear
73.9 °F
Feels Like 77 °F
N
0.9
Wind Variable Wind from SSW
Gusts 2.5 mph

Today
High -- | Low -- °F
--% Chance of Precip.
Yesterday
High -- | Low -- °F
Precip. -- in
5:21 AM 8:23 PM
Waxing Gibbous, 84% visible
Pressure 30.32 in
Visibility 10.0 miles
Clouds Few 26000 ft
Heat Index 77 °F
Dew Point 57 °F
Humidity 55%
Rainfall 0.00 in
Snow Depth Not available.
UV 5.0 out of 12
Pollen 9.80 out of 12
Ozone Good
PM2.5 Good
Flu Activity Widespread
METAR KALB 291351Z 00000KT 10SM FEW260 21/13 A3032 RMK AO2 SLP265 T02110133

More Conditions Fewer Conditions

Pressure 30.32 in
Visibility 10.0 miles
Clouds Few 26000 ft
Heat Index 77 °F
Dew Point 57 °F
Humidity 55%
Rainfall 0.00 in
Snow Depth Not available.
UV 5.0 out of 12
Pollen 9.80 out of 12
Ozone Good
PM2.5 Good
Flu Activity Widespread
METAR KALB 291351Z 00000KT 10SM FEW260 21/13 A3032 RMK AO2 SLP265 T02110133

More Conditions Fewer Conditions

10-Day Weather Forecast

Almanac

Astronomy

May. 29, 2015 Rise Set
Actual Time 5:21 AM EDT 8:23 PM EDT
Civil Twilight 4:47 AM EDT 8:57 PM EDT
Nautical Twilight 4:04 AM EDT 9:40 PM EDT
Astronomical Twilight 3:13 AM EDT 10:32 PM EDT
Moon 4:24 PM EDT 3:08 AM EDT
Length of Visible Light 16h 09m
Length of Day
15h 02m
Tomorrow will be 1m 24s longer.
Waxing Gibbous, 84% of the Moon is Illuminated
Today
Waxing Gibbous
Jun 2
Full
Jun 9
Last Quarter
Jun 16
New
Jun 24
First Quarter

Today's Extremes

State Highs State Lows

Community

WunderPhotos

Upload Photos

1,825,275 photos uploaded!

Nearby

Air Quality

  Air Quality AQ Index Pollutant
Yesterday Good
OZONE
Yesterday Good
PM2.5
Current Good
PM2.5
Current Good
OZONE
Friday Good
OZONE
Friday Good
PM2.5

Snow Depth

Station Depth Elevation
No new snow has been reported.

Earthquake Activity

City Distance Mag. Time & Date
No recent earthquake activity has been reported nearby.
Minimum magnitude displayed is 2.5.

Coastal Water Temperatures

Place Temperature
No Stations Reporting

Nearby Weather Stations